createdAt,value
2022-11-18T00:01:40.787Z,7.32
2022-11-18T00:04:07.950Z,7.00
2022-11-18T00:06:35.117Z,6.90
2022-11-18T00:09:02.264Z,6.57
2022-11-18T00:11:48.008Z,6.90
2022-11-18T00:14:19.686Z,7.00
2022-11-18T00:16:49.919Z,7.38
2022-11-18T00:19:17.279Z,7.75
2022-11-18T00:21:44.577Z,7.00
2022-11-18T00:24:11.796Z,7.30
2022-11-18T00:26:39.016Z,6.97
2022-11-18T00:29:06.191Z,6.53
2022-11-18T00:31:33.365Z,6.90
2022-11-18T00:34:00.511Z,7.47
2022-11-18T00:36:27.648Z,7.45
2022-11-18T00:38:54.933Z,7.90
2022-11-18T00:41:22.145Z,7.60
2022-11-18T00:43:49.307Z,6.82
2022-11-18T00:46:16.710Z,8.25
2022-11-18T00:48:43.876Z,7.75
2022-11-18T00:51:20.028Z,7.32
2022-11-18T00:53:47.532Z,6.82
2022-11-18T00:56:14.640Z,7.80
2022-11-18T00:58:41.822Z,7.85
2022-11-18T01:01:08.967Z,8.32
2022-11-18T01:03:36.088Z,7.30
2022-11-18T01:06:03.331Z,7.63
2022-11-18T01:08:30.471Z,7.82
2022-11-18T01:11:17.640Z,8.07
2022-11-18T01:13:44.821Z,7.30
2022-11-18T01:16:11.978Z,7.38
2022-11-18T01:18:39.133Z,7.43
2022-11-18T01:21:07.166Z,8.73
2022-11-18T01:23:34.327Z,8.00
2022-11-18T01:26:05.268Z,7.93
2022-11-18T01:28:32.461Z,8.10
2022-11-18T01:31:06.661Z,7.80
2022-11-18T01:33:34.021Z,8.02
2022-11-18T01:36:01.174Z,6.95
2022-11-18T01:38:28.799Z,7.95
2022-11-18T01:40:56.540Z,7.63
2022-11-18T01:43:24.618Z,7.50
2022-11-18T01:45:56.036Z,8.70
2022-11-18T01:48:23.164Z,8.35
2022-11-18T01:50:53.235Z,8.25
2022-11-18T01:53:26.310Z,7.88
2022-11-18T01:55:55.161Z,7.75
2022-11-18T01:58:31.465Z,9.18
2022-11-18T02:00:59.657Z,8.38
2022-11-18T02:03:27.735Z,8.00
2022-11-18T02:05:55.701Z,8.68
2022-11-18T02:08:23.250Z,8.13
2022-11-18T02:10:50.448Z,8.57
2022-11-18T02:13:18.540Z,7.97
2022-11-18T02:15:57.797Z,8.27
2022-11-18T02:18:40.308Z,8.07
2022-11-18T02:21:13.553Z,8.55
2022-11-18T02:23:49.803Z,8.52
2022-11-18T02:26:35.766Z,7.68
2022-11-18T02:29:10.785Z,8.80
2022-11-18T02:32:10.420Z,7.88
2022-11-18T02:34:41.475Z,7.78
2022-11-18T02:37:20.745Z,7.60
2022-11-18T02:40:08.694Z,8.38
2022-11-18T02:42:37.366Z,7.97
2022-11-18T02:45:07.675Z,8.48
2022-11-18T02:47:35.965Z,9.05
2022-11-18T02:50:05.395Z,7.70
2022-11-18T02:52:34.222Z,8.35
2022-11-18T02:55:02.369Z,6.63
2022-11-18T02:57:30.431Z,8.35
2022-11-18T02:59:57.666Z,7.55
2022-11-18T03:02:24.993Z,7.60
2022-11-18T03:04:53.975Z,8.48
2022-11-18T03:07:31.634Z,8.95
2022-11-18T03:09:59.869Z,7.22
2022-11-18T03:12:53.528Z,7.63
2022-11-18T03:15:43.748Z,7.90
2022-11-18T03:18:31.336Z,8.88
2022-11-18T03:21:01.605Z,8.32
2022-11-18T03:23:48.789Z,8.55
2022-11-18T03:26:24.056Z,7.68
2022-11-18T03:28:56.498Z,7.30
2022-11-18T03:31:26.804Z,7.60
2022-11-18T03:34:02.879Z,7.90
2022-11-18T03:36:33.355Z,8.23
2022-11-18T03:39:03.443Z,7.60
2022-11-18T03:41:32.043Z,7.68
2022-11-18T03:44:03.472Z,7.60
2022-11-18T03:46:34.969Z,8.35
2022-11-18T03:49:02.420Z,8.13
2022-11-18T03:51:34.604Z,8.35
2022-11-18T03:54:03.962Z,8.25
2022-11-18T03:56:33.341Z,8.43
2022-11-18T03:59:17.080Z,8.35
2022-11-18T04:01:55.754Z,7.70
2022-11-18T04:04:23.884Z,7.90
2022-11-18T04:06:53.787Z,7.60
2022-11-18T04:09:24.670Z,7.07
2022-11-18T04:12:04.059Z,7.60
2022-11-18T04:14:35.844Z,7.28
2022-11-18T04:17:06.773Z,7.05
2022-11-18T04:19:33.894Z,7.40
2022-11-18T04:22:01.179Z,7.25
2022-11-18T04:24:28.313Z,7.22
2022-11-18T04:26:55.520Z,7.18
2022-11-18T04:29:22.703Z,7.18
2022-11-18T04:31:49.811Z,7.45
2022-11-18T04:34:16.993Z,6.93
2022-11-18T04:36:44.259Z,7.25
2022-11-18T04:39:11.584Z,6.50
2022-11-18T04:41:57.161Z,7.18
2022-11-18T04:44:28.752Z,7.47
2022-11-18T04:46:57.534Z,7.55
2022-11-18T04:49:25.486Z,7.25
2022-11-18T04:51:52.989Z,7.75
2022-11-18T04:54:20.707Z,7.63
2022-11-18T04:56:49.617Z,7.80
2022-11-18T04:59:19.340Z,7.63
2022-11-18T05:01:46.605Z,7.50
2022-11-18T05:04:15.860Z,7.47
2022-11-18T05:06:42.850Z,6.70
2022-11-18T05:09:10.330Z,6.43
2022-11-18T05:11:56.127Z,6.95
2022-11-18T05:14:25.953Z,7.50
2022-11-18T05:16:53.330Z,7.38
2022-11-18T05:19:20.375Z,7.03
2022-11-18T05:21:47.391Z,6.88
2022-11-18T05:24:14.281Z,7.35
2022-11-18T05:26:41.061Z,6.35
2022-11-18T05:29:07.843Z,6.90
2022-11-18T05:31:34.671Z,6.00
2022-11-18T05:34:01.476Z,6.18
2022-11-18T05:36:28.292Z,6.85
2022-11-18T05:38:55.481Z,7.13
2022-11-18T05:41:41.486Z,7.57
2022-11-18T05:44:08.602Z,7.10
2022-11-18T05:46:35.725Z,7.20
2022-11-18T05:49:02.896Z,7.38
2022-11-18T05:51:30.089Z,6.80
2022-11-18T05:53:58.220Z,5.57
2022-11-18T05:56:25.473Z,5.70
2022-11-18T05:58:52.699Z,6.68
2022-11-18T06:01:24.167Z,6.47
2022-11-18T06:03:51.718Z,6.60
2022-11-18T06:06:21.037Z,6.20
2022-11-18T06:08:51.135Z,7.65
2022-11-18T06:11:20.029Z,10.02
2022-11-18T06:13:51.116Z,10.65
2022-11-18T06:16:21.545Z,9.20
2022-11-18T06:18:48.822Z,9.70
2022-11-18T06:21:16.006Z,9.80
2022-11-18T06:23:43.640Z,8.52
2022-11-18T06:26:12.224Z,9.60
2022-11-18T06:28:39.866Z,12.30
2022-11-18T06:31:07.084Z,12.25
2022-11-18T06:33:34.344Z,12.90
2022-11-18T06:36:01.478Z,12.90
2022-11-18T06:38:28.752Z,11.95
2022-11-18T06:40:59.437Z,13.00
2022-11-18T06:43:38.798Z,14.05
2022-11-18T06:46:25.590Z,14.40
2022-11-18T06:48:52.788Z,14.40
2022-11-18T06:51:19.986Z,14.68
2022-11-18T06:53:47.149Z,13.43
2022-11-18T06:56:15.350Z,11.52
2022-11-18T06:58:42.761Z,12.15
2022-11-18T07:01:17.610Z,11.20
2022-11-18T07:03:45.806Z,12.02
2022-11-18T07:06:14.277Z,11.25
2022-11-18T07:08:42.180Z,12.02
2022-11-18T07:11:10.971Z,12.43
2022-11-18T07:13:43.199Z,11.02
2022-11-18T07:16:12.593Z,12.15
2022-11-18T07:18:41.483Z,11.00
2022-11-18T07:21:10.058Z,11.30
2022-11-18T07:23:37.327Z,10.55
2022-11-18T07:26:05.132Z,10.95
2022-11-18T07:28:32.651Z,11.25
2022-11-18T07:31:07.135Z,11.75
2022-11-18T07:33:34.951Z,12.13
2022-11-18T07:36:02.975Z,12.85
2022-11-18T07:38:30.342Z,12.48
2022-11-18T07:41:05.017Z,11.25
2022-11-18T07:43:33.206Z,11.95
2022-11-18T07:46:00.371Z,12.40
2022-11-18T07:48:27.556Z,17.17
2022-11-18T07:50:54.812Z,13.05
2022-11-18T07:53:21.971Z,13.07
2022-11-18T07:55:49.136Z,12.70
2022-11-18T07:58:16.328Z,13.63
2022-11-18T08:00:43.446Z,13.80
2022-11-18T08:03:14.399Z,14.27
2022-11-18T08:05:41.877Z,14.25
2022-11-18T08:08:10.771Z,13.85
2022-11-18T08:10:38.227Z,13.35
2022-11-18T08:13:05.425Z,11.80
2022-11-18T08:15:32.593Z,12.27
2022-11-18T08:17:59.751Z,11.45
2022-11-18T08:20:27.933Z,12.07
2022-11-18T08:22:55.048Z,13.23
2022-11-18T08:25:22.171Z,13.73
2022-11-18T08:27:49.334Z,15.18
2022-11-18T08:30:16.443Z,14.75
2022-11-18T08:32:43.668Z,14.73
2022-11-18T08:35:11.521Z,14.23
2022-11-18T08:37:38.949Z,15.18
2022-11-18T08:40:06.372Z,13.20
2022-11-18T08:42:34.591Z,12.95
2022-11-18T08:45:01.927Z,11.73
2022-11-18T08:47:29.129Z,11.65
2022-11-18T08:49:56.316Z,12.88
2022-11-18T08:52:23.437Z,11.90
2022-11-18T08:54:50.634Z,11.32
2022-11-18T08:57:19.192Z,12.38
2022-11-18T08:59:46.305Z,13.50
2022-11-18T09:02:17.199Z,12.73
2022-11-18T09:04:44.421Z,11.85
2022-11-18T09:07:11.644Z,11.68
2022-11-18T09:09:38.825Z,12.13
2022-11-18T09:12:06.151Z,11.43
2022-11-18T09:15:12.347Z,10.90
2022-11-18T09:17:20.470Z,11.95
2022-11-18T09:19:48.396Z,11.13
2022-11-18T09:22:15.720Z,10.52
2022-11-18T09:24:43.640Z,10.73
2022-11-18T09:27:16.354Z,11.63
2022-11-18T09:29:44.440Z,10.25
2022-11-18T09:32:11.592Z,12.57
2022-11-18T09:34:38.741Z,12.38
2022-11-18T09:37:06.919Z,12.32
2022-11-18T09:39:37.582Z,11.55
2022-11-18T09:42:15.781Z,10.57
2022-11-18T09:44:53.300Z,11.18
2022-11-18T09:47:30.818Z,10.82
2022-11-18T09:50:14.818Z,9.80
2022-11-18T09:53:05.138Z,8.50
2022-11-18T09:55:32.530Z,9.57
2022-11-18T09:58:00.127Z,9.02
2022-11-18T10:00:30.230Z,10.07
2022-11-18T10:03:10.091Z,11.07
2022-11-18T10:05:43.338Z,10.68
2022-11-18T10:08:22.301Z,9.98
2022-11-18T10:10:49.485Z,10.85
2022-11-18T10:13:27.604Z,11.70
2022-11-18T10:16:01.114Z,11.95
2022-11-18T10:18:59.690Z,12.55
2022-11-18T10:21:46.502Z,12.02
2022-11-18T10:24:19.975Z,12.13
2022-11-18T10:26:47.742Z,13.27
2022-11-18T10:29:14.898Z,13.00
2022-11-18T10:32:04.335Z,13.40
2022-11-18T10:34:32.393Z,11.70
2022-11-18T10:37:06.869Z,11.88
2022-11-18T10:39:34.132Z,10.23
2022-11-18T10:42:06.241Z,11.60
2022-11-18T10:44:38.004Z,12.73
2022-11-18T10:47:17.139Z,11.10
2022-11-18T10:49:44.427Z,11.43
2022-11-18T10:52:13.023Z,10.68
2022-11-18T10:54:40.668Z,9.05
2022-11-18T10:57:14.710Z,9.85
2022-11-18T10:59:52.947Z,9.98
2022-11-18T11:02:39.968Z,10.60
2022-11-18T11:05:23.596Z,10.13
2022-11-18T11:08:29.455Z,8.85
2022-11-18T11:10:55.430Z,10.30
2022-11-18T11:13:23.257Z,10.07
2022-11-18T11:15:53.064Z,11.07
2022-11-18T11:18:42.906Z,11.43
2022-11-18T11:21:12.557Z,10.02
2022-11-18T11:23:39.962Z,9.65
2022-11-18T11:29:31.561Z,9.02
2022-11-18T11:32:17.290Z,10.60
2022-11-18T11:34:47.637Z,9.75
2022-11-18T11:37:21.058Z,10.93
2022-11-18T11:39:51.285Z,11.68
2022-11-18T11:42:33.771Z,11.55
2022-11-18T11:45:06.774Z,11.00
2022-11-18T11:47:56.938Z,10.48
2022-11-18T11:51:03.387Z,12.02
2022-11-18T11:53:50.568Z,11.27
2022-11-18T11:56:22.384Z,12.00
2022-11-18T11:59:08.941Z,10.52
2022-11-18T12:01:54.762Z,10.65
2022-11-18T12:04:21.918Z,9.93
2022-11-18T12:06:51.868Z,10.73
2022-11-18T12:09:22.193Z,10.75
2022-11-18T12:12:29.503Z,11.57
2022-11-18T12:15:00.817Z,11.35
2022-11-18T12:19:55.018Z,11.15
2022-11-18T12:22:23.175Z,10.80
2022-11-18T12:24:50.316Z,11.45
2022-11-18T12:27:30.398Z,11.05
2022-11-18T12:30:01.612Z,10.82
2022-11-18T12:32:47.029Z,9.80
2022-11-18T12:35:14.216Z,10.55
2022-11-18T12:37:53.614Z,18.55
2022-11-18T12:40:40.679Z,15.98
2022-11-18T12:43:32.574Z,12.27
2022-11-18T12:45:59.776Z,12.07
2022-11-18T12:48:34.669Z,12.27
2022-11-18T12:51:01.881Z,11.75
2022-11-18T12:53:45.961Z,12.23
2022-11-18T12:56:13.164Z,11.85
2022-11-18T12:58:45.259Z,12.68
2022-11-18T13:01:13.361Z,12.73
2022-11-18T13:03:40.626Z,12.20
2022-11-18T13:06:13.706Z,13.23
2022-11-18T13:08:41.328Z,13.23
2022-11-18T13:11:27.157Z,13.07
2022-11-18T13:14:14.589Z,11.68
2022-11-18T13:17:01.270Z,11.27
2022-11-18T13:19:28.391Z,12.30
2022-11-18T13:22:15.726Z,12.52
2022-11-18T13:24:49.877Z,12.90
2022-11-18T13:27:29.187Z,12.40
2022-11-18T13:30:03.952Z,13.88
2022-11-18T13:32:31.173Z,13.15
2022-11-18T13:35:18.545Z,13.23
2022-11-18T13:37:50.736Z,13.77
2022-11-18T13:40:25.494Z,12.23
2022-11-18T13:42:52.758Z,12.20
2022-11-18T13:45:20.423Z,11.50
2022-11-18T13:47:55.504Z,13.70
2022-11-18T13:50:29.370Z,12.23
2022-11-18T13:52:59.412Z,12.65
2022-11-18T13:55:28.924Z,13.65
2022-11-18T13:58:23.694Z,12.57
2022-11-18T14:00:58.188Z,13.48
2022-11-18T14:03:27.607Z,13.98
2022-11-18T14:05:55.482Z,14.57
2022-11-18T14:08:33.094Z,14.52
2022-11-18T14:11:00.344Z,14.40
2022-11-18T14:13:27.471Z,13.50
2022-11-18T14:15:59.606Z,13.02
2022-11-18T14:18:34.264Z,13.65
2022-11-18T14:21:02.489Z,12.65
2022-11-18T14:23:31.072Z,13.57
2022-11-18T14:25:59.751Z,14.88
2022-11-18T14:28:28.379Z,15.18
2022-11-18T14:30:57.132Z,15.07
2022-11-18T14:33:24.667Z,13.73
2022-11-18T14:35:51.900Z,17.10
2022-11-18T14:38:40.650Z,15.73
2022-11-18T14:41:12.280Z,16.83
2022-11-18T14:43:39.525Z,16.65
2022-11-18T14:46:08.490Z,16.38
2022-11-18T14:48:35.733Z,15.95
2022-11-18T14:51:02.862Z,11.95
2022-11-18T14:53:30.022Z,14.85
2022-11-18T14:55:59.833Z,14.85
2022-11-18T14:58:26.956Z,14.85
2022-11-18T15:00:54.199Z,15.88
2022-11-18T15:03:21.509Z,16.58
2022-11-18T15:05:48.983Z,18.58
2022-11-18T15:08:16.706Z,19.77
2022-11-18T15:10:44.006Z,19.67
2022-11-18T15:13:11.130Z,22.05
2022-11-18T15:15:38.292Z,22.58
2022-11-18T15:18:05.515Z,23.48
2022-11-18T15:20:32.728Z,21.33
2022-11-18T15:22:59.891Z,19.38
2022-11-18T15:25:27.080Z,18.20
2022-11-18T15:27:54.252Z,19.98
2022-11-18T15:30:21.689Z,19.15
2022-11-18T15:32:48.874Z,18.67
2022-11-18T15:35:16.050Z,18.50
2022-11-18T15:37:43.211Z,16.58
2022-11-18T15:40:11.153Z,17.70
2022-11-18T15:42:47.480Z,17.55
2022-11-18T15:45:17.755Z,17.55
2022-11-18T15:47:44.869Z,16.65
2022-11-18T15:50:12.808Z,14.38
2022-11-18T15:52:40.005Z,14.77
2022-11-18T15:55:08.271Z,13.90
2022-11-18T15:57:35.629Z,12.80
2022-11-18T16:00:02.894Z,13.43
2022-11-18T16:02:31.277Z,13.43
2022-11-18T16:04:58.416Z,14.27
2022-11-18T16:07:25.717Z,13.57
2022-11-18T16:10:11.579Z,12.73
2022-11-18T16:12:47.987Z,14.23
2022-11-18T16:15:34.057Z,13.98
2022-11-18T16:18:01.673Z,13.93
2022-11-18T16:20:29.078Z,14.75
2022-11-18T16:22:57.332Z,14.57
2022-11-18T16:25:24.720Z,15.07
2022-11-18T16:27:51.977Z,15.73
2022-11-18T16:30:38.112Z,15.23
2022-11-18T16:33:05.568Z,14.80
2022-11-18T16:35:32.715Z,15.75
2022-11-18T16:37:59.871Z,15.18
2022-11-18T16:40:28.563Z,15.90
2022-11-18T16:42:55.838Z,16.90
2022-11-18T16:45:23.099Z,15.32
2022-11-18T16:47:50.235Z,15.48
2022-11-18T16:50:17.532Z,17.05
2022-11-18T16:52:44.765Z,17.63
2022-11-18T16:55:11.916Z,16.50
2022-11-18T16:57:39.064Z,16.73
2022-11-18T17:00:06.548Z,16.55
2022-11-18T17:02:33.716Z,17.73
2022-11-18T17:05:00.906Z,17.63
2022-11-18T17:07:28.161Z,17.45
2022-11-18T17:09:55.355Z,19.15
2022-11-18T17:12:22.455Z,18.00
2022-11-18T17:14:49.634Z,17.52
2022-11-18T17:17:16.756Z,18.90
2022-11-18T17:19:43.928Z,18.85
2022-11-18T17:22:11.208Z,19.38
2022-11-18T17:24:38.331Z,19.42
2022-11-18T17:27:05.508Z,17.48
2022-11-18T17:29:33.058Z,19.65
2022-11-18T17:32:01.243Z,16.83
2022-11-18T17:34:28.437Z,18.48
2022-11-18T17:36:55.604Z,19.20
2022-11-18T17:39:22.717Z,17.42
2022-11-18T17:42:08.421Z,17.48
2022-11-18T17:44:35.603Z,15.80
2022-11-18T17:47:02.856Z,18.05
2022-11-18T17:49:30.069Z,17.30
2022-11-18T17:51:57.230Z,15.25
2022-11-18T17:54:24.372Z,15.50
2022-11-18T17:56:54.720Z,17.15
2022-11-18T17:59:22.950Z,16.95
2022-11-18T18:01:54.430Z,86.65
2022-11-18T18:04:26.011Z,17.08
2022-11-18T18:06:53.303Z,18.73
2022-11-18T18:09:28.480Z,17.13
2022-11-18T18:11:57.606Z,19.05
2022-11-18T18:14:24.740Z,19.85
2022-11-18T18:16:51.909Z,19.73
2022-11-18T18:19:20.560Z,16.23
2022-11-18T18:21:48.007Z,17.83
2022-11-18T18:24:17.243Z,18.60
2022-11-18T18:26:44.833Z,19.83
2022-11-18T18:29:12.420Z,18.02
2022-11-18T18:31:39.602Z,14.40
2022-11-18T18:34:06.873Z,16.80
2022-11-18T18:36:34.043Z,15.18
2022-11-18T18:39:02.281Z,16.05
2022-11-18T18:41:29.721Z,20.50
2022-11-18T18:43:56.916Z,14.90
2022-11-18T18:46:33.663Z,16.15
2022-11-18T18:49:02.921Z,16.08
2022-11-18T18:51:31.356Z,15.35
2022-11-18T18:53:59.442Z,15.55
2022-11-18T18:56:27.375Z,14.80
2022-11-18T18:58:54.987Z,13.70
2022-11-18T19:01:22.308Z,13.57
2022-11-18T19:03:54.297Z,13.50
2022-11-18T19:09:11.378Z,12.45
2022-11-18T19:11:57.720Z,12.50
2022-11-18T19:14:25.390Z,12.10
2022-11-18T19:16:53.249Z,13.20
2022-11-18T19:19:43.635Z,13.55
2022-11-18T19:22:11.599Z,13.20
2022-11-18T19:24:54.587Z,13.85
2022-11-18T19:27:22.488Z,11.50
2022-11-18T19:29:49.653Z,13.25
2022-11-18T19:32:16.790Z,14.10
2022-11-18T19:34:44.194Z,16.25
2022-11-18T19:37:11.304Z,13.50
2022-11-18T19:39:39.093Z,15.93
2022-11-18T19:42:06.417Z,16.83
2022-11-18T19:44:33.797Z,19.33
2022-11-18T19:47:00.960Z,20.88
2022-11-18T19:49:28.160Z,18.85
2022-11-18T19:51:55.278Z,17.73
2022-11-18T19:54:22.480Z,19.58
2022-11-18T19:56:49.681Z,19.15
2022-11-18T19:59:17.224Z,18.95
2022-11-18T20:01:44.629Z,19.67
2022-11-18T20:04:11.889Z,19.63
2022-11-18T20:06:40.097Z,18.70
2022-11-18T20:09:07.941Z,19.40
2022-11-18T20:11:35.266Z,19.40
2022-11-18T20:14:02.479Z,22.38
2022-11-18T20:16:29.623Z,22.13
2022-11-18T20:19:03.889Z,16.00
2022-11-18T20:21:34.234Z,20.05
2022-11-18T20:24:02.758Z,20.55
2022-11-18T20:26:31.828Z,20.35
2022-11-18T20:28:58.956Z,21.50
2022-11-18T20:31:26.471Z,20.00
2022-11-18T20:33:54.529Z,21.45
2022-11-18T20:36:31.992Z,18.40
2022-11-18T20:39:00.781Z,21.83
2022-11-18T20:41:30.446Z,21.73
2022-11-18T20:43:57.826Z,20.17
2022-11-18T20:46:25.362Z,22.27
2022-11-18T20:48:52.568Z,20.50
2022-11-18T20:51:21.156Z,21.50
2022-11-18T20:53:48.389Z,22.42
2022-11-18T20:56:16.936Z,21.80
2022-11-18T20:58:44.703Z,19.70
2022-11-18T21:01:12.906Z,20.08
2022-11-18T21:03:40.763Z,21.42
2022-11-18T21:06:14.742Z,22.80
2022-11-18T21:08:42.808Z,19.13
2022-11-18T21:11:11.573Z,18.00
2022-11-18T21:13:57.729Z,23.08
2022-11-18T21:16:25.295Z,22.00
2022-11-18T21:18:52.494Z,22.40
2022-11-18T21:21:38.307Z,19.88
2022-11-18T21:24:05.613Z,15.63
2022-11-18T21:26:33.349Z,18.10
2022-11-18T21:29:01.454Z,18.65
2022-11-18T21:31:29.091Z,17.45
2022-11-18T21:33:56.982Z,18.08
2022-11-18T21:36:24.728Z,18.60
2022-11-18T21:38:52.288Z,18.13
2022-11-18T21:41:19.663Z,16.42
2022-11-18T21:46:34.891Z,15.95
2022-11-18T21:49:02.600Z,14.30
2022-11-18T21:51:32.029Z,15.43
2022-11-18T21:53:59.487Z,16.65
2022-11-18T21:56:31.278Z,16.45
2022-11-18T21:58:59.966Z,17.42
2022-11-18T22:01:28.317Z,14.15
2022-11-18T22:03:56.601Z,14.95
2022-11-18T22:06:24.702Z,16.25
2022-11-18T22:08:52.555Z,17.95
2022-11-18T22:11:24.196Z,16.90
2022-11-18T22:13:52.579Z,17.90
2022-11-18T22:16:20.930Z,15.85
2022-11-18T22:18:54.769Z,16.25
2022-11-18T22:21:26.241Z,16.90
2022-11-18T22:23:53.675Z,17.42
2022-11-18T22:26:21.776Z,15.57
2022-11-18T22:28:53.312Z,17.08
2022-11-18T22:31:21.177Z,17.60
2022-11-18T22:33:51.869Z,15.18
2022-11-18T22:36:19.992Z,17.52
2022-11-18T22:38:47.281Z,16.08
2022-11-18T22:41:34.021Z,16.35
2022-11-18T22:44:06.998Z,14.73
2022-11-18T22:46:34.604Z,16.05
2022-11-18T22:49:01.766Z,15.55
2022-11-18T22:51:29.202Z,16.73
2022-11-18T22:54:23.001Z,17.00
2022-11-18T22:56:48.338Z,19.02
2022-11-18T22:59:15.452Z,14.88
2022-11-18T23:01:42.653Z,14.85
2022-11-18T23:04:09.881Z,16.63
2022-11-18T23:06:37.004Z,14.48
2022-11-18T23:09:04.176Z,14.55
2022-11-18T23:11:50.374Z,13.73
2022-11-18T23:14:17.521Z,12.82
2022-11-18T23:16:44.844Z,16.63
2022-11-18T23:19:13.558Z,15.07
2022-11-18T23:21:41.134Z,14.00
2022-11-18T23:24:11.095Z,17.42
2022-11-18T23:26:38.363Z,14.20
2022-11-18T23:29:05.606Z,16.70
2022-11-18T23:31:32.995Z,14.80
2022-11-18T23:34:00.738Z,14.80
2022-11-18T23:36:28.061Z,16.05
2022-11-18T23:38:55.369Z,14.90
2022-11-18T23:41:22.748Z,14.32
2022-11-18T23:43:51.980Z,14.60
2022-11-18T23:46:19.901Z,13.80
2022-11-18T23:48:47.849Z,14.18
2022-11-18T23:51:16.412Z,9.80
2022-11-18T23:53:43.953Z,12.15
2022-11-18T23:56:12.352Z,13.13
2022-11-18T23:58:40.360Z,11.60
